This is the latest recevied weather packets stored in our database for station/object IW2LSY-11. If no packets are shown the sender has not sent any weather packets the latest 10 day(s).
| Time | Temp. | Humidity | Pressure | Rain* | Wind** | Luminosity | Snow |
|---|---|---|---|---|---|---|---|
| 1777948813 | 11.67° C | 68% | 1014.4 hPa | - | - | 405 W/m² | - |
| 1777948213 | 11.67° C | 67% | 1014.5 hPa | - | - | 405 W/m² | - |
| 1777947613 | 11.11° C | 71% | 1014.6 hPa | - | - | 405 W/m² | - |
| 1777947014 | 10.56° C | 74% | 1014.8 hPa | - | - | 406 W/m² | - |
| 1777946414 | 10.56° C | 73% | 1014.8 hPa | - | - | 406 W/m² | - |
| 1777945814 | 11.11° C | 69% | 1014.9 hPa | - | - | 407 W/m² | - |
| 1777945214 | 11.11° C | 72% | 1015.2 hPa | - | - | 408 W/m² | - |
| 1777944614 | 11.67° C | 69% | 1015.2 hPa | - | - | 408 W/m² | - |
| 1777944015 | 11.67° C | 70% | 1015.2 hPa | - | - | 408 W/m² | - |
| 1777943404 | 10.56° C | 78% | 1015.4 hPa | - | - | 409 W/m² | - |
| 1777942804 | 10.56° C | 75% | 1015.7 hPa | - | - | 410 W/m² | - |
| 1777942204 | 10° C | 79% | 1015.8 hPa | - | - | 410 W/m² | - |
| 1777941615 | 11.11° C | 74% | 1015.9 hPa | - | - | 410 W/m² | - |
| 1777941012 | 11.11° C | 74% | 1016 hPa | - | - | 411 W/m² | - |
| 1777940412 | 11.67° C | 72% | 1016.1 hPa | - | - | 411 W/m² | - |
| 1777939813 | 11.67° C | 71% | 1016.2 hPa | - | - | 411 W/m² | - |
| 1777939213 | 12.22° C | 68% | 1016.2 hPa | - | - | 412 W/m² | - |
| 1777938614 | 11.67° C | 71% | 1016.2 hPa | - | - | 412 W/m² | - |
| 1777938014 | 11.67° C | 71% | 1016.3 hPa | - | - | 413 W/m² | - |
| 1777937415 | 11.67° C | 73% | 1016.3 hPa | - | - | 413 W/m² | - |
| 1777936815 | 12.22° C | 71% | 1016.5 hPa | - | - | 414 W/m² | - |
| 1777936215 | 11.67° C | 71% | 1016.6 hPa | - | - | 414 W/m² | - |
| 1777935615 | 12.22° C | 70% | 1016.6 hPa | - | - | 415 W/m² | - |
| 1777935015 | 12.78° C | 66% | 1016.6 hPa | - | - | 415 W/m² | - |
| 1777934415 | 12.78° C | 66% | 1016.7 hPa | - | - | 415 W/m² | - |
* Rain since midnight (hover to see other rain measurements)
** Current wind speed in m/s (hover to see current wind gust speed)